Sedgwick Reserve, California Weather observations

Data are for 10 minute period ending at time listed.
 Day   Time   Solar   Ave.   Ave.  Ave.  Vector  Max.   Baro.   Total    
  of    of     Rad.   Air    Rel.  Wind   Wind   Wind  Press.  Precip.   
Year   Day            Temp.  Hum.  Speed  Dir.   Gust                    
2018   (PST)  Kw/m2    F      %     mph   deg.    mph    mb.     in.     
-------------------------------------------------------------------------
  21   18:10   0.00   48.9    60    2.1    31     5.5   984.1    0.00 
  21   18:20   0.00   48.2    62    2.8   243     5.3   984.2    0.00 
  21   18:30   0.00   48.4    61    3.9   301     5.7   984.3    0.00 
  21   18:40   0.00   47.3    62    2.6   336     4.8   984.4    0.00 
  21   18:50   0.00   47.2    62    2.6   338     5.6   984.5    0.00 
  21   19:00   0.00   46.9    65    2.8   338     4.9   984.6    0.00 
  21   19:10   0.00   47.2    65    2.0   340     5.0   984.6    0.00 
  21   19:20   0.00   46.4    66    1.6    18     3.1   984.6    0.00 
  21   19:30   0.00   45.9    68    2.7    14     4.6   984.6    0.00 
  21   19:40   0.00   45.3    68    1.2   356     3.9   984.6    0.00 
  21   19:50   0.00   44.0    69    1.8   335     4.2   984.6    0.00 
  21   20:00   0.00   43.2    70    2.7   291     5.4   984.6    0.00 
  21   20:10   0.00   43.4    67    3.5   301     6.2   984.6    0.00 
  21   20:20   0.00   42.2    70    2.7   249     5.2   984.7    0.00 
  21   20:30   0.00   41.6    71    2.6   109     5.7   984.8    0.00 
  21   20:40   0.00   41.0    76    2.6    93     5.7   984.8    0.00 
  21   20:50   0.00   41.8    77    1.7   247     4.2   984.9    0.00 
  21   21:00   0.00   41.0    77    2.8   280     5.8   985.2    0.00 
  21   21:10   0.00   42.0    76    3.6   295     5.6   985.3    0.00 
  21   21:20   0.00   41.8    78    2.4    42     4.2   985.3    0.00 
  21   21:30   0.00   42.7    77    1.7    72     3.7   985.4    0.00 
  21   21:40   0.00   42.3    78    2.2   247     4.3   985.4    0.00 
  21   21:50   0.00   41.8    79    2.9   301     6.0   985.4    0.00 
  21   22:00   0.00   41.6    79    3.4   352     6.8   985.6    0.00 
  21   22:10   0.00   40.8    80    1.7    75     4.4   985.6    0.00 
  21   22:20   0.00   40.8    80    2.0    14     3.4   985.6    0.00 
  21   22:30   0.00   39.8    80    2.2   316     4.8   985.5    0.00 
  21   22:40   0.00   39.1    82    1.5   353     5.3   985.5    0.00 
  21   22:50   0.00   38.8    82    3.7    19     5.9   985.5    0.00 
  21   23:00   0.00   38.4    82    2.0   282     3.7   985.5    0.00 
  21   23:10   0.00   37.9    82    3.8    25     7.1   985.4    0.00 
  21   23:20   0.00   37.9    82    3.0   356     5.6   985.3    0.00 
  21   23:30   0.00   37.9    83    2.9   276     4.6   985.2    0.00 
  21   23:40   0.00   38.0    84    3.7   289     5.0   985.2    0.00 
  21   23:50   0.00   37.5    84    3.1   340     6.1   985.2    0.00 
  22    0:00   0.00   37.5    83    3.7    20     6.9   985.1    0.00 
  22    0:10   0.00   37.0    85    3.3   314     4.9   985.1    0.00 
  22    0:20   0.00   37.2    85    2.7   358     5.3   985.0    0.00 
  22    0:30   0.00   36.2    86    3.5     2     7.3   984.9    0.00 
  22    0:40   0.00   36.3    87    1.9   332     4.5   984.7    0.00 
  22    0:50   0.00   36.4    88    1.5   268     3.4   984.6    0.00 
  22    1:00   0.00   36.0    88    1.8   296     4.8   984.6    0.00 
  22    1:10   0.00   35.5    89    1.9     4     3.7   984.7    0.00 
  22    1:20   0.00   35.9    90    2.4    15     4.5   984.8    0.00 
  22    1:30   0.00   36.5    90    1.8   350     4.4   985.0    0.00 
  22    1:40   0.00   35.6    89    3.0    12     6.0   985.0    0.00 
  22    1:50   0.00   34.4    91    3.5   322     6.7   984.9    0.00 
  22    2:00   0.00   35.1    91    1.2   328     2.8   984.9    0.00 
  22    2:10   0.00   34.9    92    1.1    23     3.0   984.8    0.00 
  22    2:20   0.00   34.9    92    2.2     9     5.0   984.7    0.00 
  22    2:30   0.00   34.3    92    2.2   339     4.7   984.7    0.00 
  22    2:40   0.00   34.6    93    1.6   336     2.9   984.7    0.00 
  22    2:50   0.00   34.6    93    0.9   292     2.5   984.7    0.00 
  22    3:00   0.00   34.9    92    2.5    14     5.6   984.6    0.00 
  22    3:10   0.00   34.2    92    1.5    17     4.2   984.5    0.00 
  22    3:20   0.00   33.5    93    2.2     4     4.6   984.4    0.00 
  22    3:30   0.00   33.4    93    1.5   287     3.5   984.3    0.00 
  22    3:40   0.00   33.2    93    0.9   303     3.9   984.3    0.00 
  22    3:50   0.00   32.9    93    2.7   320     4.6   984.3    0.00 
  22    4:00   0.00   32.8    94    2.3    21     5.8   984.3    0.00 
  22    4:10   0.00   32.3    93    3.0    10     6.3   984.3    0.00 
  22    4:20   0.00   32.1    93    2.4   350     4.5   984.3    0.00 
  22    4:30   0.00   32.4    93    1.0   281     2.8   984.2    0.00 
  22    4:40   0.00   32.3    93    0.9   298     2.3   984.1    0.00 
  22    4:50   0.00   32.5    93    0.8    31     2.2   984.1    0.00 
  22    5:00   0.00   31.8    92    1.1   239     2.1   984.1    0.00 
  22    5:10   0.00   32.1    93    0.3   283     1.8   984.2    0.00 
  22    5:20   0.00   32.2    93    0.5    33     2.0   984.2    0.00 
  22    5:30   0.00   32.1    92    2.1    17     3.2   984.3    0.00 
  22    5:40   0.00   32.1    93    2.4   356     4.7   984.3    0.00 
  22    5:50   0.00   31.9    92    1.6   294     2.9   984.4    0.00 
  22    6:00   0.00   31.7    92    1.5   290     3.2   984.4    0.00 
  22    6:10   0.00   31.7    93    1.3    25     3.9   984.4    0.00 
  22    6:20   0.00   31.9    93    2.5     5     4.7   984.4    0.00 
  22    6:30   0.00   32.2    93    1.4   290     3.2   984.4    0.00 
  22    6:40   0.00   32.2    93    0.7   272     2.3   984.4    0.00 
  22    6:50   0.00   31.8    93    0.3    79     2.0   984.4    0.00 
  22    7:00   0.00   31.9    94    2.1    18     5.0   984.4    0.00 
  22    7:10   0.01   31.7    94    1.5   334     3.1   984.5    0.00 
  22    7:20   0.02   31.9    94    0.9    25     2.3   984.5    0.00 
  22    7:30   0.08   32.1    94    0.8   303     2.3   984.5    0.00 
  22    7:40   0.11   32.6    94    1.2   260     2.8   984.4    0.00 
  22    7:50   0.14   33.1    93    0.7    26     2.0   984.4    0.00 
  22    8:00   0.18   34.4    92    0.8     3     2.3   984.4    0.00 
  22    8:10   0.21   35.7    92    1.1   322     2.1   984.4    0.00 
  22    8:20   0.25   37.0    89    3.1    13     5.8   984.4    0.00 
  22    8:30   0.28   39.8    85    1.6    19     3.3   984.4    0.00 
  22    8:40   0.31   42.7    79    0.5   150     1.9   984.5    0.00 
  22    8:50   0.34   45.1    70    1.4   120     3.4   984.5    0.00 
  22    9:00   0.36   45.5    67    2.2   128     4.6   984.7    0.00 
  22    9:10   0.39   46.7    63    1.7   126     3.7   984.7    0.00 
  22    9:20   0.42   47.9    61    1.5   185     3.4   984.7    0.00 
  22    9:30   0.44   49.0    59    1.2   116     2.9   984.6    0.00 
  22    9:40   0.47   50.1    56    1.0    89     2.7   984.6    0.00 
  22    9:50   0.49   50.9    54    1.9   149     3.8   984.5    0.00 
  22   10:00   0.51   51.2    54    2.1   145     4.2   984.5    0.00 
  22   10:10   0.53   52.9    52    3.0   142     6.1   984.5    0.00 
  22   10:20   0.55   53.8    52    4.0   159     6.9   984.5    0.00 
  22   10:30   0.56   53.8    55    5.6   142     8.6   984.5    0.00 
  22   10:40   0.58   53.7    55    4.9   136     8.4   984.4    0.00 
  22   10:50   0.59   54.6    54    4.7   129     9.1   984.3    0.00 
  22   11:00   0.60   55.0    53    4.5   155     8.4   984.2    0.00 
  22   11:10   0.61   57.7    49    3.9   118     7.2   984.1    0.00 
  22   11:20   0.62   57.8    49    5.3   134     8.4   983.8    0.00 
  22   11:30   0.62   59.0    46    4.0   149     6.9   983.6    0.00 
  22   11:40   0.60   60.0    45    5.9   171     9.8   983.5    0.00 
  22   11:50   0.63   60.6    42    5.6   136    10.5   983.4    0.00 
  22   12:00   0.63   61.5    41    5.6   139     8.6   983.3    0.00 
  22   12:10   0.63   62.7    36    5.6   154     8.5   983.0    0.00 
  22   12:20   0.63   65.1    31    4.3   142     7.4   982.8    0.00 
  22   12:30   0.62   65.4    22    4.5    49    11.6   982.7    0.00 
  22   12:40   0.62   66.2    18    7.5    31    18.1   982.4    0.00 
  22   12:50   0.61   67.7    18    6.0    32    14.7   982.1    0.00 
  22   13:00   0.60   66.7    18    7.5     4    16.9   982.0    0.00 
  22   13:10   0.59   67.4    19    8.7     5    20.6   981.8    0.00 
  22   13:20   0.57   66.9    18    8.1    13    17.7   981.8    0.00 
  22   13:30   0.56   67.7    20    8.3   331    19.1   981.7    0.00 
  22   13:40   0.54   67.6    19    7.7     5    19.1   981.6    0.00 
  22   13:50   0.52   66.8    20    8.0   358    17.2   981.6    0.00 
  22   14:00   0.50   67.2    20    6.9     7    14.6   981.6    0.00 
  22   14:10   0.48   67.7    21    6.2    20    19.2   981.4    0.00 
  22   14:20   0.46   67.4    21    8.2   356    14.2   981.3    0.00 
  22   14:30   0.43   66.7    21    7.8    14    17.0   981.3    0.00 
  22   14:40   0.41   66.6    21    9.0     8    17.0   981.3    0.00 
  22   14:50   0.38   66.8    22    9.7    22    18.3   981.3    0.00 
  22   15:00   0.35   66.9    23    7.8   359    15.0   981.3    0.00 
  22   15:10   0.33   66.5    23    9.8    12    19.9   981.2    0.00 
  22   15:20   0.30   66.6    24    7.2   359    15.0   981.2    0.00 
  22   15:30   0.27   66.3    24    8.2   355    14.1   981.2    0.00 
  22   15:40   0.24   65.9    25    7.3   357    13.9   981.1    0.00 
  22   15:50   0.21   66.1    25    6.4   350    14.6   981.0    0.00 
  22   16:00   0.18   65.5    26    8.2     1    14.7   981.1    0.00 
  22   16:10   0.15   65.6    28    6.4   348    13.3   981.2    0.00 
  22   16:20   0.12   64.0    43    9.2   289    16.5   981.3    0.00 
  22   16:30   0.09   63.0    46    7.9   307    16.7   981.4    0.00 
  22   16:40   0.06   62.0    50    8.2   310    14.6   981.5    0.00 
  22   16:50   0.04   60.5    55    8.2   308    13.4   981.7    0.00 
  22   17:00   0.02   58.8    62   10.2   312    17.5   981.7    0.00 
  22   17:10   0.01   57.0    70   12.1   308    19.9   981.8    0.00 
  22   17:20   0.01   55.9    74   11.2   306    16.4   982.0    0.00 
  22   17:30   0.00   55.3    76   10.1   311    17.2   982.1    0.00 
  22   17:40   0.00   54.8    77    6.5   325    17.0   982.2    0.00 
  22   17:50   0.00   54.1    78    4.5   358     7.2   982.3    0.00 
  22   18:00   0.00   53.8    78    4.1   356     6.9   982.3    0.00 

Return to Sedgwick Reserve graphs page.


Western Regional Climate Center,wrcc@dri.edu